Time;durP1;ratioP1;P1;durP2;ratioP2;P2;SDS_P1;SDS_P2;PMS_P1;PMS_P2;Temp;Humidity;BMP_temperature;BMP_pressure;BME280_temperature;BME280_humidity;BME280_pressure;Samples;Min_cycle;Max_cycle;Signal;HPM_P1;HPM_P2
2021/05/14 00:01:51;;;;;;;10.32;6.65;;;7.80;99.90;;;;;;5005784;28;20032;-71
2021/05/14 00:04:19;;;;;;;8.27;6.63;;;7.80;99.90;;;;;;5022249;28;20139;-71
2021/05/14 00:06:49;;;;;;;9.15;5.35;;;7.70;99.90;;;;;;5014138;28;20045;-73
2021/05/14 00:09:17;;;;;;;5.40;4.40;;;7.80;99.90;;;;;;5014084;28;20040;-72
2021/05/14 00:11:44;;;;;;;5.70;4.20;;;7.80;99.90;;;;;;5013429;28;20109;-71
2021/05/14 00:14:11;;;;;;;6.75;3.88;;;7.70;99.90;;;;;;5012441;28;20022;-73
2021/05/14 00:16:36;;;;;;;6.45;3.55;;;7.60;99.90;;;;;;5013094;28;20427;-73
2021/05/14 00:19:03;;;;;;;12.20;4.28;;;7.60;99.90;;;;;;5011974;28;20022;-72
2021/05/14 00:21:29;;;;;;;10.73;4.50;;;7.60;99.90;;;;;;5013108;28;20441;-72
2021/05/14 00:23:55;;;;;;;7.45;4.10;;;7.60;99.90;;;;;;5012634;28;20018;-73
2021/05/14 00:26:21;;;;;;;4.97;4.10;;;7.50;99.90;;;;;;5013150;28;20101;-73
2021/05/14 00:28:48;;;;;;;5.43;3.85;;;7.50;99.90;;;;;;5013266;28;20025;-72
2021/05/14 00:31:14;;;;;;;6.60;4.47;;;7.40;99.90;;;;;;5014676;28;20028;-72
2021/05/14 00:33:39;;;;;;;4.00;3.60;;;7.40;99.90;;;;;;5030527;28;20108;-71
2021/05/14 00:36:06;;;;;;;8.35;4.05;;;7.40;99.90;;;;;;5032199;28;20405;-70
2021/05/14 00:38:32;;;;;;;5.43;3.97;;;7.30;99.90;;;;;;5030887;28;20495;-72
2021/05/14 00:40:57;;;;;;;6.75;4.15;;;7.30;99.90;;;;;;5032273;28;20068;-71
2021/05/14 00:43:23;;;;;;;4.15;3.75;;;7.20;99.90;;;;;;5031968;28;20022;-73
2021/05/14 00:45:49;;;;;;;3.92;3.63;;;7.20;99.90;;;;;;5032182;28;20021;-70
2021/05/14 00:48:15;;;;;;;4.47;3.83;;;7.20;99.90;;;;;;5032204;28;20484;-70
2021/05/14 00:50:41;;;;;;;4.35;3.90;;;7.20;99.90;;;;;;5032024;28;20068;-71
2021/05/14 00:53:06;;;;;;;7.25;4.30;;;7.10;99.90;;;;;;5031369;28;20080;-71
2021/05/14 00:55:32;;;;;;;12.30;6.80;;;7.10;99.90;;;;;;5032076;28;20069;-72
2021/05/14 00:57:59;;;;;;;7.15;5.55;;;7.10;99.90;;;;;;5031892;28;20060;-71
2021/05/14 01:00:24;;;;;;;6.15;4.93;;;7.10;99.90;;;;;;5031147;28;20112;-72
2021/05/14 01:02:52;;;;;;;5.90;4.35;;;7.00;99.90;;;;;;5030418;28;20184;-71
2021/05/14 01:05:19;;;;;;;5.57;4.22;;;7.00;99.90;;;;;;5031763;28;20022;-73
2021/05/14 01:07:45;;;;;;;4.00;3.70;;;7.00;99.90;;;;;;5032930;28;20036;-72
2021/05/14 01:10:11;;;;;;;5.82;3.92;;;7.00;99.90;;;;;;5033489;28;20029;-72
2021/05/14 01:12:37;;;;;;;8.15;4.05;;;6.90;99.90;;;;;;5033887;28;20035;-73
2021/05/14 01:15:04;;;;;;;7.28;4.38;;;6.80;99.90;;;;;;5034011;28;20038;-71
2021/05/14 01:17:31;;;;;;;5.75;4.40;;;6.90;99.90;;;;;;5033992;28;20025;-72
2021/05/14 01:19:58;;;;;;;5.53;5.03;;;6.80;99.90;;;;;;5034474;28;20021;-72
2021/05/14 01:22:25;;;;;;;7.68;4.47;;;6.80;99.90;;;;;;5033387;28;20029;-72
2021/05/14 01:24:51;;;;;;;6.72;4.40;;;6.70;99.90;;;;;;5030993;28;20026;-71
2021/05/14 01:27:17;;;;;;;5.28;4.72;;;6.70;99.90;;;;;;5031421;28;20026;-71
2021/05/14 01:29:44;;;;;;;10.25;5.40;;;6.70;99.90;;;;;;5031514;28;20026;-71
2021/05/14 01:32:10;;;;;;;9.82;4.68;;;6.70;99.90;;;;;;5031046;28;20022;-71
2021/05/14 01:34:36;;;;;;;5.68;4.75;;;6.60;99.90;;;;;;5030679;28;20025;-71
2021/05/14 01:37:02;;;;;;;8.25;4.93;;;6.60;99.90;;;;;;5031095;28;20049;-72
2021/05/14 01:39:27;;;;;;;6.78;4.65;;;6.60;99.90;;;;;;5031399;28;20090;-71
2021/05/14 01:41:54;;;;;;;7.60;4.90;;;6.50;99.90;;;;;;5031094;28;20033;-71
2021/05/14 01:44:21;;;;;;;5.97;4.32;;;6.40;99.90;;;;;;5030758;28;20594;-71
2021/05/14 01:46:47;;;;;;;5.68;4.85;;;6.50;99.90;;;;;;5031235;28;20379;-71
2021/05/14 01:49:12;;;;;;;7.60;4.32;;;6.40;99.90;;;;;;5031054;28;20025;-71
2021/05/14 01:51:38;;;;;;;5.18;4.28;;;6.40;99.90;;;;;;5030927;28;20034;-71
2021/05/14 01:54:04;;;;;;;6.38;4.00;;;6.40;99.90;;;;;;5030560;28;20028;-71
2021/05/14 01:56:30;;;;;;;6.55;4.15;;;6.40;99.90;;;;;;5030975;28;20026;-73
2021/05/14 01:58:56;;;;;;;6.55;3.92;;;6.30;99.90;;;;;;5031287;28;20372;-72
2021/05/14 02:01:22;;;;;;;5.07;4.30;;;6.30;99.90;;;;;;5030756;28;20034;-73
2021/05/14 02:03:48;;;;;;;5.53;4.10;;;6.30;99.90;;;;;;5028869;28;20079;-72
2021/05/14 02:06:13;;;;;;;5.22;3.97;;;6.20;99.90;;;;;;5031037;28;20052;-71
2021/05/14 02:08:39;;;;;;;4.80;4.30;;;6.20;99.90;;;;;;5031086;28;20053;-71
2021/05/14 02:11:09;;;;;;;5.85;4.93;;;6.20;99.90;;;;;;5030703;28;20086;-72
2021/05/14 02:13:36;;;;;;;5.78;4.00;;;6.20;99.90;;;;;;5051782;22;20564;-72
2021/05/14 02:16:02;;;;;;;8.40;5.00;;;6.10;99.90;;;;;;5046520;28;20025;-71
2021/05/14 02:18:27;;;;;;;6.70;4.07;;;6.20;99.90;;;;;;5054969;28;20128;-72
2021/05/14 02:20:53;;;;;;;5.95;4.05;;;6.10;99.90;;;;;;5054713;28;20031;-71
2021/05/14 02:23:19;;;;;;;5.40;4.25;;;6.10;99.90;;;;;;5054133;28;20116;-73
2021/05/14 02:25:44;;;;;;;6.63;4.60;;;6.10;99.90;;;;;;5036448;28;20092;-73
2021/05/14 02:28:10;;;;;;;5.85;4.65;;;6.10;99.90;;;;;;5034815;28;20112;-72
2021/05/14 02:30:36;;;;;;;4.78;4.35;;;6.00;99.90;;;;;;5034692;28;20387;-71
2021/05/14 02:33:02;;;;;;;8.00;5.05;;;6.00;99.90;;;;;;5032632;28;20048;-71
2021/05/14 02:35:27;;;;;;;8.32;4.85;;;5.90;99.90;;;;;;5034885;28;20033;-73
2021/05/14 02:37:53;;;;;;;7.68;4.88;;;5.90;99.90;;;;;;5034820;28;20647;-73
2021/05/14 02:40:19;;;;;;;6.63;4.65;;;5.90;99.90;;;;;;5034650;28;20441;-73
2021/05/14 02:42:45;;;;;;;5.38;4.85;;;5.80;99.90;;;;;;5034106;28;20029;-72
2021/05/14 02:45:11;;;;;;;7.82;5.57;;;5.80;99.90;;;;;;5049862;28;20025;-72
2021/05/14 02:47:38;;;;;;;5.05;4.55;;;5.80;99.90;;;;;;5054276;28;20017;-73
2021/05/14 02:50:05;;;;;;;5.18;4.68;;;5.80;99.90;;;;;;5054362;28;20025;-73
2021/05/14 02:52:31;;;;;;;8.82;5.57;;;5.70;99.90;;;;;;5054253;28;20028;-72
2021/05/14 02:54:56;;;;;;;9.30;4.47;;;5.70;99.90;;;;;;5053413;28;20029;-71
2021/05/14 02:57:23;;;;;;;7.25;4.55;;;5.70;99.90;;;;;;5054167;28;20474;-72
2021/05/14 02:59:48;;;;;;;7.70;5.20;;;5.70;99.90;;;;;;5053882;28;20127;-71
2021/05/14 03:02:14;;;;;;;7.47;5.15;;;5.50;99.90;;;;;;5054070;28;20056;-72
2021/05/14 03:04:40;;;;;;;10.93;5.05;;;5.60;99.90;;;;;;5053295;28;20067;-72
2021/05/14 03:07:05;;;;;;;5.28;4.78;;;5.60;99.90;;;;;;5053965;28;20082;-72
2021/05/14 03:09:31;;;;;;;7.63;5.10;;;5.60;99.90;;;;;;5052651;28;20086;-71
2021/05/14 03:11:57;;;;;;;9.82;6.68;;;5.60;99.90;;;;;;5053914;28;20025;-72
2021/05/14 03:14:22;;;;;;;6.18;5.57;;;5.50;99.90;;;;;;5043373;28;20045;-73
2021/05/14 03:16:48;;;;;;;8.90;5.57;;;5.50;99.90;;;;;;5034048;28;20069;-72
2021/05/14 03:19:14;;;;;;;5.97;4.90;;;5.50;99.90;;;;;;5033748;28;20025;-71
2021/05/14 03:21:39;;;;;;;7.15;5.28;;;5.50;99.90;;;;;;5032444;28;20029;-73
2021/05/14 03:24:05;;;;;;;5.45;4.68;;;5.50;99.90;;;;;;5030800;28;20025;-72
2021/05/14 03:26:31;;;;;;;7.70;5.63;;;5.40;99.90;;;;;;5033762;28;20026;-72
2021/05/14 03:28:57;;;;;;;13.85;6.32;;;5.40;99.90;;;;;;5032190;28;20060;-72
2021/05/14 03:31:22;;;;;;;9.98;5.60;;;5.40;99.90;;;;;;5033063;28;20112;-73
2021/05/14 03:33:48;;;;;;;8.70;5.93;;;5.40;99.90;;;;;;5033603;28;20573;-73
2021/05/14 03:36:19;;;;;;;8.25;5.40;;;5.40;99.90;;;;;;5033455;28;20476;-71
2021/05/14 03:38:45;;;;;;;7.85;5.50;;;5.40;99.90;;;;;;5033537;28;20160;-72
2021/05/14 03:43:54;;;;;;;8.48;5.95;;;5.40;99.90;;;;;;5037958;28;20036;-71
2021/05/14 03:46:20;;;;;;;11.35;6.07;;;5.40;99.90;;;;;;5053383;28;20394;-71
2021/05/14 03:48:46;;;;;;;8.52;6.13;;;5.30;99.90;;;;;;5052185;28;20498;-71
2021/05/14 03:51:12;;;;;;;7.63;5.78;;;5.30;99.90;;;;;;5053312;28;20109;-72
2021/05/14 03:53:37;;;;;;;8.60;6.47;;;5.30;99.90;;;;;;5052558;28;20028;-72
2021/05/14 03:56:03;;;;;;;7.88;5.63;;;5.30;99.90;;;;;;5052972;28;20039;-72
2021/05/14 03:58:29;;;;;;;9.35;6.47;;;5.30;99.90;;;;;;5053244;28;20021;-71
2021/05/14 04:00:55;;;;;;;7.75;6.00;;;5.30;99.90;;;;;;5052963;28;20032;-72
2021/05/14 04:03:22;;;;;;;6.75;5.90;;;5.20;99.90;;;;;;5052430;28;20040;-71
2021/05/14 04:05:48;;;;;;;7.72;6.25;;;5.30;99.90;;;;;;5052882;28;20025;-72
2021/05/14 04:08:15;;;;;;;6.45;4.90;;;5.30;99.90;;;;;;5053015;28;20175;-72
2021/05/14 04:16:08;;;;;;;11.02;5.22;;;5.20;99.90;;;;;;5053740;28;20044;-73
2021/05/14 04:18:37;;;;;;;6.20;5.28;;;5.20;99.90;;;;;;5054516;28;20088;-74
2021/05/14 04:21:03;;;;;;;7.32;4.82;;;5.30;99.90;;;;;;5053892;28;20106;-72
2021/05/14 04:23:29;;;;;;;4.68;4.25;;;5.30;99.90;;;;;;5053159;28;20451;-74
2021/05/14 04:25:55;;;;;;;5.65;4.20;;;5.30;99.90;;;;;;5053133;28;20053;-74
2021/05/14 04:28:20;;;;;;;7.88;4.97;;;5.30;99.90;;;;;;5053832;28;20017;-74
2021/05/14 04:30:46;;;;;;;5.85;4.57;;;5.30;99.90;;;;;;5054688;28;20070;-73
2021/05/14 04:33:12;;;;;;;8.25;4.70;;;5.40;99.90;;;;;;5051929;28;20021;-75
2021/05/14 04:35:37;;;;;;;10.50;5.03;;;5.40;99.90;;;;;;5053660;28;20390;-73
2021/05/14 04:38:03;;;;;;;5.22;4.72;;;5.30;99.90;;;;;;5052686;28;20039;-73
2021/05/14 04:40:29;;;;;;;6.22;4.85;;;5.30;99.90;;;;;;5054126;28;20130;-72
2021/05/14 04:43:03;;;;;;;7.97;4.47;;;5.30;99.90;;;;;;5050974;28;20115;-72
2021/05/14 04:45:29;;;;;;;8.35;5.13;;;5.30;99.90;;;;;;5052478;28;20045;-73
2021/05/14 04:47:55;;;;;;;7.03;4.90;;;5.40;99.90;;;;;;5051836;28;20060;-74
2021/05/14 04:50:21;;;;;;;9.93;4.60;;;5.30;99.90;;;;;;5052889;28;20029;-73
2021/05/14 04:52:48;;;;;;;4.88;4.40;;;5.30;99.90;;;;;;5052644;28;20543;-73
2021/05/14 04:55:15;;;;;;;5.70;3.95;;;5.40;99.90;;;;;;5039388;28;20025;-72
2021/05/14 04:57:41;;;;;;;7.18;4.93;;;5.60;99.90;;;;;;5031311;28;20137;-73
2021/05/14 05:00:07;;;;;;;6.07;5.22;;;5.50;99.90;;;;;;5030760;28;20124;-75
2021/05/14 05:02:35;;;;;;;12.15;5.65;;;5.60;99.90;;;;;;5031928;28;20025;-74
2021/05/14 05:05:01;;;;;;;10.05;5.90;;;5.70;99.90;;;;;;5033594;28;20127;-73
2021/05/14 05:07:30;;;;;;;9.13;5.97;;;5.70;99.90;;;;;;5033296;28;20472;-73
2021/05/14 05:09:55;;;;;;;9.07;6.30;;;5.70;99.90;;;;;;5031994;28;20053;-73
2021/05/14 05:12:21;;;;;;;7.72;5.65;;;5.80;99.90;;;;;;5031740;28;20076;-74
2021/05/14 05:14:47;;;;;;;9.75;4.88;;;5.80;99.90;;;;;;5031215;28;20040;-75
2021/05/14 05:17:13;;;;;;;7.70;4.40;;;5.70;99.90;;;;;;5032629;28;20514;-77
2021/05/14 05:19:39;;;;;;;4.55;4.15;;;5.70;99.90;;;;;;5033012;28;20045;-75
2021/05/14 05:22:04;;;;;;;7.25;4.05;;;5.80;99.90;;;;;;5039511;28;20057;-74
2021/05/14 05:24:30;;;;;;;4.38;3.65;;;5.90;99.90;;;;;;5032336;28;20030;-72
2021/05/14 05:26:56;;;;;;;5.68;4.10;;;6.00;99.90;;;;;;5029703;28;20039;-74
2021/05/14 05:29:21;;;;;;;6.15;4.30;;;6.10;99.90;;;;;;5031447;28;20756;-74
2021/05/14 05:31:47;;;;;;;4.95;4.38;;;6.40;99.90;;;;;;5035023;28;20048;-73
2021/05/14 05:34:13;;;;;;;5.40;4.90;;;6.80;99.90;;;;;;5034969;28;20063;-75
2021/05/14 05:36:38;;;;;;;6.85;4.07;;;7.00;99.90;;;;;;5031612;28;20033;-74
2021/05/14 05:39:05;;;;;;;5.25;4.22;;;7.20;99.90;;;;;;5024553;28;20022;-73
2021/05/14 05:41:30;;;;;;;5.35;4.47;;;7.20;99.90;;;;;;5031634;28;20103;-74
2021/05/14 05:43:56;;;;;;;4.53;3.80;;;7.20;99.90;;;;;;5036550;28;20021;-74
2021/05/14 05:46:22;;;;;;;5.22;3.10;;;7.20;99.90;;;;;;5052367;28;20044;-75
2021/05/14 05:48:49;;;;;;;3.15;2.72;;;7.30;99.90;;;;;;5014649;28;20022;-75
2021/05/14 05:51:15;;;;;;;4.65;2.30;;;7.50;99.90;;;;;;5028096;28;20028;-75
2021/05/14 05:53:42;;;;;;;2.35;2.05;;;7.60;99.90;;;;;;5031513;28;20033;-76
2021/05/14 05:56:08;;;;;;;4.03;1.50;;;7.90;99.90;;;;;;5034849;28;20029;-73
2021/05/14 05:58:33;;;;;;;2.35;1.20;;;8.20;99.90;;;;;;5031932;28;20121;-75
2021/05/14 06:00:59;;;;;;;2.42;1.40;;;8.40;99.90;;;;;;5031496;28;20575;-76
2021/05/14 06:03:25;;;;;;;2.40;1.33;;;8.60;99.90;;;;;;5031304;28;20733;-74
2021/05/14 06:05:52;;;;;;;4.13;1.33;;;8.70;99.90;;;;;;5028540;28;20050;-76
2021/05/14 06:08:17;;;;;;;1.33;0.98;;;8.80;99.90;;;;;;5037315;28;20434;-76
2021/05/14 06:10:44;;;;;;;1.67;1.40;;;9.00;99.90;;;;;;5036719;28;20041;-76
2021/05/14 06:13:10;;;;;;;2.63;1.63;;;9.00;99.90;;;;;;5031157;28;20108;-74
2021/05/14 06:15:36;;;;;;;3.95;1.75;;;9.10;99.90;;;;;;5036712;28;20125;-77
2021/05/14 06:18:02;;;;;;;2.00;1.90;;;9.00;99.90;;;;;;5033649;28;20364;-74
2021/05/14 06:20:29;;;;;;;3.20;1.85;;;9.00;99.90;;;;;;5034137;28;20028;-75
2021/05/14 06:22:55;;;;;;;2.15;1.90;;;9.00;99.90;;;;;;5034995;28;20017;-76
2021/05/14 06:25:21;;;;;;;5.00;1.92;;;8.90;99.90;;;;;;5035333;28;20060;-74
2021/05/14 06:27:46;;;;;;;3.13;1.70;;;9.00;99.90;;;;;;5032872;28;20064;-75
2021/05/14 06:30:14;;;;;;;1.83;1.70;;;9.10;99.90;;;;;;5031075;28;20032;-75
2021/05/14 06:32:39;;;;;;;2.72;1.83;;;9.10;99.90;;;;;;5033134;28;20026;-74
2021/05/14 06:35:06;;;;;;;4.22;1.45;;;9.00;99.90;;;;;;5031609;28;20029;-76
2021/05/14 06:37:36;;;;;;;2.45;1.67;;;9.10;99.90;;;;;;5030744;28;20116;-74
2021/05/14 06:40:06;;;;;;;3.42;1.60;;;9.20;99.90;;;;;;5036720;28;20029;-75
2021/05/14 06:42:32;;;;;;;2.33;1.58;;;9.40;99.90;;;;;;5035856;28;20026;-78
2021/05/14 06:44:58;;;;;;;2.60;1.42;;;9.50;99.90;;;;;;5034488;28;20018;-76
2021/05/14 06:47:24;;;;;;;2.70;1.73;;;9.80;99.90;;;;;;5029855;28;20022;-75
2021/05/14 06:49:50;;;;;;;3.67;1.85;;;9.90;99.90;;;;;;5031342;28;20474;-74
2021/05/14 06:52:15;;;;;;;4.65;1.90;;;10.00;99.90;;;;;;5030755;28;20104;-72
2021/05/14 06:54:41;;;;;;;3.35;1.40;;;10.30;99.90;;;;;;5028663;28;20037;-74
2021/05/14 06:57:07;;;;;;;3.30;1.60;;;10.40;99.90;;;;;;5028895;28;20035;-76
2021/05/14 06:59:32;;;;;;;6.13;1.77;;;10.60;99.90;;;;;;5030591;28;20029;-76
2021/05/14 07:01:58;;;;;;;8.00;1.55;;;10.80;99.90;;;;;;5034643;28;20021;-77
2021/05/14 07:04:24;;;;;;;2.15;1.90;;;10.90;99.90;;;;;;5032999;28;20476;-77
2021/05/14 07:06:50;;;;;;;2.15;1.40;;;11.10;99.90;;;;;;5033001;28;20380;-76
2021/05/14 07:09:15;;;;;;;3.00;1.20;;;11.10;99.90;;;;;;5032982;28;20097;-76
2021/05/14 07:11:41;;;;;;;1.30;1.20;;;11.20;99.90;;;;;;5031506;28;20514;-75
2021/05/14 07:14:07;;;;;;;2.22;1.20;;;11.30;99.90;;;;;;5031448;28;20033;-75
2021/05/14 07:16:32;;;;;;;4.65;1.00;;;11.40;99.90;;;;;;5033869;28;20129;-74
2021/05/14 07:18:58;;;;;;;2.78;1.27;;;11.70;99.90;;;;;;5032471;28;20026;-73
2021/05/14 07:21:24;;;;;;;1.50;1.08;;;11.90;99.90;;;;;;5032342;28;20068;-75
2021/05/14 07:23:50;;;;;;;2.13;0.93;;;12.00;99.90;;;;;;5031829;28;20105;-75
2021/05/14 07:26:17;;;;;;;1.05;1.00;;;11.90;99.90;;;;;;5029570;28;20097;-73
2021/05/14 07:28:42;;;;;;;2.30;0.90;;;12.20;99.90;;;;;;5012208;28;20018;-74
2021/05/14 07:31:08;;;;;;;1.65;1.27;;;12.20;99.90;;;;;;5012004;28;20578;-75
2021/05/14 07:33:37;;;;;;;1.13;0.90;;;12.20;99.90;;;;;;5013240;28;20025;-76
2021/05/14 07:36:04;;;;;;;1.00;0.88;;;12.30;99.90;;;;;;5014313;28;20106;-75
2021/05/14 07:38:29;;;;;;;1.33;0.80;;;12.30;99.90;;;;;;5029325;28;20040;-75
2021/05/14 07:40:55;;;;;;;1.95;0.80;;;12.20;99.90;;;;;;5032413;28;20029;-75
2021/05/14 07:43:20;;;;;;;0.70;0.70;;;12.20;99.90;;;;;;5034954;28;20033;-75
2021/05/14 07:45:46;;;;;;;0.63;0.60;;;12.20;99.90;;;;;;5053664;28;20074;-76
2021/05/14 07:48:21;;;;;;;1.85;0.60;;;12.40;99.90;;;;;;5053840;28;20021;-75
2021/05/14 07:50:48;;;;;;;0.90;0.70;;;12.60;99.90;;;;;;5052272;28;20025;-75
2021/05/14 07:53:14;;;;;;;0.93;0.68;;;12.90;99.90;;;;;;5052732;28;20059;-74
2021/05/14 07:55:40;;;;;;;2.30;0.70;;;13.00;99.90;;;;;;5043869;28;20060;-73
2021/05/14 07:58:05;;;;;;;2.38;0.68;;;13.30;99.90;;;;;;5050938;28;20029;-74
2021/05/14 08:00:31;;;;;;;5.35;0.80;;;13.30;99.90;;;;;;5053347;28;20032;-77
2021/05/14 08:02:57;;;;;;;1.65;0.70;;;13.10;99.90;;;;;;5036776;28;20104;-76
2021/05/14 08:05:23;;;;;;;1.13;0.70;;;13.10;99.90;;;;;;5051767;28;20036;-75
2021/05/14 08:08:06;;;;;;;1.55;0.50;;;13.10;99.90;;;;;;5021227;28;20052;-76
2021/05/14 08:10:32;;;;;;;1.02;0.60;;;13.20;99.90;;;;;;5035920;28;20164;-77
2021/05/14 08:12:57;;;;;;;2.22;0.60;;;13.30;99.90;;;;;;5032523;28;20071;-75
2021/05/14 08:15:23;;;;;;;2.08;0.50;;;13.30;99.90;;;;;;5120466;23;20045;-73
2021/05/14 08:17:51;;;;;;;0.85;0.50;;;13.70;99.90;;;;;;5049024;28;20072;-74
2021/05/14 08:20:17;;;;;;;0.98;0.35;;;13.80;99.90;;;;;;5032234;28;20037;-74
2021/05/14 08:22:43;;;;;;;2.22;0.65;;;14.00;99.90;;;;;;5030879;28;20394;-74
2021/05/14 08:25:10;;;;;;;1.02;0.60;;;14.20;99.90;;;;;;5032264;28;20036;-74
2021/05/14 08:27:36;;;;;;;3.33;0.90;;;14.40;99.90;;;;;;5032088;28;20091;-73
2021/05/14 08:30:04;;;;;;;0.82;0.40;;;14.80;99.90;;;;;;5032089;28;20080;-73
2021/05/14 08:32:30;;;;;;;1.30;0.50;;;14.80;99.90;;;;;;5032015;28;20029;-74
2021/05/14 08:34:56;;;;;;;1.80;0.50;;;15.10;99.90;;;;;;5031484;28;20052;-73
2021/05/14 08:37:22;;;;;;;1.00;0.50;;;15.40;99.90;;;;;;5032091;28;20029;-73
2021/05/14 08:39:48;;;;;;;0.63;0.60;;;15.20;99.90;;;;;;5030946;28;20430;-73
2021/05/14 08:42:13;;;;;;;5.82;0.55;;;15.30;99.90;;;;;;5032074;28;20052;-74
2021/05/14 08:44:40;;;;;;;1.67;0.60;;;15.60;99.90;;;;;;5032395;28;20116;-73
2021/05/14 08:47:07;;;;;;;0.35;0.30;;;16.80;99.90;;;;;;5051760;28;20032;-74
2021/05/14 08:49:34;;;;;;;2.08;0.68;;;16.00;99.90;;;;;;5051681;28;20029;-74
2021/05/14 08:52:03;;;;;;;0.82;0.47;;;16.20;99.90;;;;;;5051816;28;20021;-73
2021/05/14 08:54:29;;;;;;;2.08;0.57;;;17.20;99.90;;;;;;5051164;28;20101;-75
2021/05/14 08:56:55;;;;;;;1.55;0.50;;;17.20;99.90;;;;;;5051778;28;20104;-75
2021/05/14 08:59:21;;;;;;;1.35;0.40;;;16.60;99.90;;;;;;5051831;28;20463;-75
2021/05/14 09:01:49;;;;;;;2.00;0.70;;;16.20;99.90;;;;;;5051100;28;20037;-74
2021/05/14 09:04:16;;;;;;;0.90;0.30;;;17.30;99.90;;;;;;5050847;28;20075;-75
2021/05/14 09:06:43;;;;;;;1.63;0.50;;;17.60;99.90;;;;;;5051179;28;20423;-74
2021/05/14 09:09:11;;;;;;;0.60;0.30;;;17.00;99.90;;;;;;5051770;28;20104;-74
2021/05/14 09:11:48;;;;;;;2.80;0.45;;;16.70;99.90;;;;;;5051861;28;20024;-75
2021/05/14 09:14:32;;;;;;;0.82;0.50;;;17.10;99.90;;;;;;5051298;28;20025;-73
2021/05/14 09:17:15;;;;;;;1.30;0.70;;;17.80;99.80;;;;;;5014011;28;20139;-73
2021/05/14 09:19:43;;;;;;;1.10;0.47;;;17.40;98.70;;;;;;5031665;28;20468;-72
2021/05/14 09:22:21;;;;;;;2.08;0.47;;;16.60;99.80;;;;;;5030676;28;20022;-73
2021/05/14 09:24:49;;;;;;;1.55;0.50;;;15.60;99.90;;;;;;5031046;28;20456;-73
2021/05/14 09:27:36;;;;;;;0.70;0.40;;;16.20;99.90;;;;;;5013103;28;20022;-75
2021/05/14 09:30:05;;;;;;;5.88;0.80;;;18.20;99.90;;;;;;5030960;28;20136;-74
2021/05/14 09:32:35;;;;;;;3.10;0.90;;;19.20;99.90;;;;;;5031024;28;20679;-73
2021/05/14 09:35:04;;;;;;;2.90;0.50;;;19.20;99.90;;;;;;5030296;28;20029;-74
2021/05/14 09:37:30;;;;;;;1.13;0.60;;;19.10;98.20;;;;;;5031205;28;20455;-74
2021/05/14 09:40:14;;;;;;;1.10;0.63;;;19.00;98.30;;;;;;5031261;28;20022;-74
2021/05/14 09:42:41;;;;;;;0.75;0.40;;;19.50;99.10;;;;;;5030203;28;20454;-73
2021/05/14 09:45:27;;;;;;;2.20;0.40;;;19.40;97.20;;;;;;5035876;28;20017;-72
2021/05/14 09:47:59;;;;;;;1.17;0.40;;;20.30;96.70;;;;;;5050694;28;20025;-74
2021/05/14 09:50:37;;;;;;;1.10;0.32;;;22.30;93.20;;;;;;5050870;28;20033;-72
2021/05/14 09:53:06;;;;;;;5.07;0.55;;;22.10;91.20;;;;;;5050129;28;20035;-72
2021/05/14 09:55:34;;;;;;;1.45;0.50;;;22.00;91.40;;;;;;5050684;28;20033;-72
2021/05/14 09:58:03;;;;;;;4.32;0.70;;;21.10;91.10;;;;;;5050573;28;20029;-73
2021/05/14 10:00:29;;;;;;;0.80;0.63;;;20.00;92.30;;;;;;5050631;28;20025;-72
2021/05/14 10:02:58;;;;;;;1.00;0.40;;;18.50;92.80;;;;;;5049859;28;20047;-72
2021/05/14 10:05:25;;;;;;;1.77;0.50;;;18.70;94.60;;;;;;5050591;28;20025;-73
2021/05/14 10:07:51;;;;;;;1.58;0.45;;;18.40;94.50;;;;;;5050539;28;20092;-71
2021/05/14 10:10:18;;;;;;;1.58;0.45;;;18.10;95.90;;;;;;5050408;28;20521;-72
2021/05/14 10:12:47;;;;;;;2.33;0.40;;;17.60;95.90;;;;;;5031936;28;20033;-71
2021/05/14 10:15:13;;;;;;;1.20;0.50;;;16.90;97.20;;;;;;5050172;28;20080;-71
2021/05/14 10:17:40;;;;;;;1.70;0.43;;;17.90;96.40;;;;;;5050354;28;20545;-73
2021/05/14 10:20:14;;;;;;;1.25;0.52;;;18.50;94.20;;;;;;5050592;28;20029;-71
2021/05/14 10:22:40;;;;;;;1.27;0.43;;;19.40;95.00;;;;;;5049918;28;20021;-72
2021/05/14 10:25:07;;;;;;;1.13;0.60;;;19.60;91.30;;;;;;5064258;28;20040;-72
2021/05/14 10:27:40;;;;;;;1.33;0.40;;;19.50;91.30;;;;;;5037793;28;20025;-73
2021/05/14 10:30:07;;;;;;;3.88;0.35;;;18.00;90.40;;;;;;5030777;28;20052;-74
2021/05/14 10:32:45;;;;;;;1.05;0.32;;;17.50;93.60;;;;;;5030648;28;20068;-73
2021/05/14 10:35:17;;;;;;;1.10;0.50;;;17.10;93.20;;;;;;5034555;28;20033;-73
2021/05/14 10:37:47;;;;;;;3.33;0.30;;;17.90;94.90;;;;;;5034498;28;20036;-72
2021/05/14 10:40:37;;;;;;;1.10;0.32;;;18.10;91.20;;;;;;5035631;28;20592;-73
2021/05/14 10:43:18;;;;;;;1.27;0.30;;;17.20;90.90;;;;;;5026943;28;20044;-72
2021/05/14 10:45:44;;;;;;;1.25;0.60;;;16.50;91.60;;;;;;5039816;28;20022;-73
2021/05/14 10:48:18;;;;;;;2.90;0.40;;;16.90;93.10;;;;;;5034631;28;20022;-73
2021/05/14 10:50:52;;;;;;;0.52;0.40;;;16.70;91.20;;;;;;5034326;28;20101;-74
2021/05/14 10:53:37;;;;;;;0.75;0.28;;;17.10;92.70;;;;;;5033407;28;20037;-72
2021/05/14 10:56:08;;;;;;;0.40;0.30;;;17.20;89.70;;;;;;5034444;28;20029;-73
2021/05/14 10:58:54;;;;;;;0.75;0.35;;;16.70;91.10;;;;;;5034110;28;20025;-72
2021/05/14 11:01:40;;;;;;;0.82;0.40;;;17.00;93.20;;;;;;5034002;28;20017;-72
2021/05/14 11:04:15;;;;;;;0.95;0.28;;;17.70;93.20;;;;;;5033346;28;20359;-72
2021/05/14 11:06:52;;;;;;;0.60;0.30;;;18.50;89.40;;;;;;5052132;28;20415;-72
2021/05/14 11:09:21;;;;;;;1.25;0.40;;;19.60;89.60;;;;;;5036365;28;20039;-72
2021/05/14 11:12:05;;;;;;;2.83;0.45;;;20.70;83.50;;;;;;5036645;28;20025;-72
2021/05/14 11:14:45;;;;;;;2.13;0.30;;;19.80;83.90;;;;;;5052598;28;20025;-72
2021/05/14 11:17:14;;;;;;;1.13;0.55;;;19.30;82.60;;;;;;5053153;28;20087;-73
2021/05/14 11:19:51;;;;;;;1.45;0.65;;;19.50;88.70;;;;;;5053844;28;20100;-73
2021/05/14 11:22:22;;;;;;;0.38;0.30;;;19.20;84.60;;;;;;5035443;28;20098;-73
2021/05/14 11:24:50;;;;;;;0.85;0.38;;;18.90;83.90;;;;;;5052608;28;20025;-74
2021/05/14 11:27:28;;;;;;;1.23;0.50;;;19.60;84.50;;;;;;5053210;28;20117;-74
2021/05/14 11:29:56;;;;;;;1.00;0.30;;;20.50;84.10;;;;;;5053387;28;20025;-73
2021/05/14 11:32:25;;;;;;;7.55;0.55;;;22.70;82.40;;;;;;5053312;28;20112;-74
2021/05/14 11:34:56;;;;;;;1.10;0.47;;;23.40;77.90;;;;;;5052906;28;20128;-73
2021/05/14 11:37:24;;;;;;;0.45;0.20;;;22.20;71.50;;;;;;5053611;28;20028;-73
2021/05/14 11:39:50;;;;;;;0.80;0.32;;;20.20;81.50;;;;;;5049563;28;20020;-73
2021/05/14 11:42:20;;;;;;;1.02;0.40;;;21.00;78.10;;;;;;5053457;28;20044;-72
2021/05/14 11:44:56;;;;;;;1.15;0.43;;;21.40;76.50;;;;;;5051477;28;20087;-73
2021/05/14 11:47:22;;;;;;;1.23;0.35;;;22.00;77.80;;;;;;5052665;28;20486;-73
2021/05/14 11:49:48;;;;;;;0.68;0.40;;;22.90;75.60;;;;;;5050125;28;20055;-73
2021/05/14 11:52:14;;;;;;;2.15;0.43;;;22.70;71.80;;;;;;5051478;28;20021;-72
2021/05/14 11:54:39;;;;;;;1.05;0.40;;;23.00;73.20;;;;;;5050942;28;20032;-73
2021/05/14 11:57:05;;;;;;;4.40;0.50;;;23.30;68.80;;;;;;5050940;28;20028;-72
2021/05/14 11:59:31;;;;;;;0.20;0.20;;;25.10;65.30;;;;;;5052035;28;20025;-73
2021/05/14 12:01:56;;;;;;;0.20;0.20;;;22.60;63.80;;;;;;5051484;28;20043;-72
2021/05/14 12:04:22;;;;;;;0.85;0.30;;;22.90;62.60;;;;;;5050745;28;20514;-72
2021/05/14 12:06:49;;;;;;;0.50;0.30;;;22.10;63.40;;;;;;5051194;28;20036;-72
2021/05/14 12:09:15;;;;;;;0.80;0.20;;;22.00;65.80;;;;;;5051529;28;20045;-73
2021/05/14 12:11:43;;;;;;;1.38;0.60;;;23.90;63.60;;;;;;5051712;28;20079;-74
2021/05/14 12:14:09;;;;;;;0.75;0.38;;;23.80;59.00;;;;;;5048538;28;20107;-71
2021/05/14 12:16:38;;;;;;;1.08;0.30;;;24.40;58.00;;;;;;5050567;28;20155;-73
2021/05/14 12:19:06;;;;;;;0.60;0.25;;;24.00;60.80;;;;;;5050972;28;20029;-73
2021/05/14 12:21:38;;;;;;;1.23;0.50;;;24.10;57.50;;;;;;5050405;28;20541;-72
2021/05/14 12:24:18;;;;;;;1.45;0.40;;;24.20;58.00;;;;;;5032674;28;20029;-75
2021/05/14 12:26:45;;;;;;;0.90;0.13;;;24.80;56.80;;;;;;5050842;28;20037;-73
2021/05/14 12:29:29;;;;;;;0.57;0.20;;;25.70;54.40;;;;;;5031853;28;20562;-73
2021/05/14 12:31:56;;;;;;;0.98;0.30;;;24.00;56.80;;;;;;5050055;28;20033;-72
2021/05/14 12:34:23;;;;;;;1.35;0.43;;;24.80;54.60;;;;;;5051218;28;20112;-72
2021/05/14 12:36:58;;;;;;;0.95;0.20;;;27.00;56.20;;;;;;5048810;28;20060;-72
2021/05/14 12:39:24;;;;;;;1.77;0.50;;;27.20;51.00;;;;;;5031652;28;20039;-71
2021/05/14 12:41:53;;;;;;;0.93;0.22;;;24.20;53.20;;;;;;5051909;28;20017;-72
2021/05/14 12:44:26;;;;;;;0.73;0.32;;;21.90;57.30;;;;;;5050764;28;20491;-73
2021/05/14 12:47:07;;;;;;;1.10;0.22;;;21.70;59.50;;;;;;5051657;28;20025;-72
2021/05/14 12:49:34;;;;;;;1.05;0.30;;;23.90;58.70;;;;;;5034465;28;20024;-72
2021/05/14 12:52:06;;;;;;;0.90;0.30;;;25.70;54.20;;;;;;5052047;28;20352;-72
2021/05/14 12:54:34;;;;;;;0.38;0.30;;;26.00;55.70;;;;;;5051330;28;20501;-75
2021/05/14 12:57:00;;;;;;;1.02;0.40;;;25.80;55.00;;;;;;5050535;28;20063;-73
2021/05/14 12:59:26;;;;;;;1.45;0.20;;;25.20;54.30;;;;;;5051769;28;20021;-72
2021/05/14 13:01:53;;;;;;;1.48;0.30;;;23.90;59.80;;;;;;5051367;28;20017;-74
2021/05/14 13:04:30;;;;;;;0.90;0.32;;;23.60;59.20;;;;;;5050893;28;20032;-71